Historyczne dane pomiarowe

Dodano dane terminowe – wersja testowa.

Dane z okresu 1951-2019

Wersja bazy: 1.34 [2019-03-16, lista zmian], aktualizacja planowana na 2019-04-15

Dane meteo z obszaru Polski uzyskane na podstawie danych udostępnionych przez Instytut Meteorologii i Gospodarki Wodnej – Państwowy Instytut Badawczy.

 

Wybierz Datę:    

       

TemperaturaWilgotnośćWiatrCiśnienieOpadyŚniegCzas trwania zjawisk
 Stacja t tx tn tng RH VA  wxwx mslp ppp RRR   cm mm wxwxwxwxwxwxwx
1960-02-15 3.1 4.8 0.0 -4.0 61.8- 3.3 8.0---- 0.0------------
1960-02-16 2.0 4.1 -0.3 -2.1 68.3- 4.0 6.3---- 0.0------------
1960-02-17 0.4 2.5 -0.9 -4.3 83.5- 2.3 7.3---- 0.0------------
1960-02-18 -0.8 3.6 -4.6 -7.7 85.5- 2.0 0.3---- 0.0------------
1960-02-19 0.9 3.5 -2.5 -5.1 82.3- 6.3 2.3---- 0.0------------
1960-02-20 2.5 6.8 0.6 -0.7 78.0- 4.3 0.7---- 0.0------------
1960-02-21 5.2 9.0 0.0 -2.9 65.8- 6.0 8.0---- 0.0------------
1960-02-22 4.8 7.9 0.2 4.2 76.0- 4.0 1.3---- 0.0------------
1960-02-23 3.9 6.9 0.7 -3.3 89.3- 6.0 2.0---- 23.2------------
1960-02-24 1.2 3.4 0.3 0.1 90.0- 8.0 4.7---- 0.9-- 1---------
1960-02-25 1.0 3.1 -0.2 0.4 80.8- 6.3 2.7---- 0.0------------
1960-02-26 -2.1 0.1 -3.6 -1.4 82.0- 6.0 1.7---- 0.0------------
1960-02-27 3.0 6.2 -3.9 -6.2 75.8- 5.7 2.7---- 0.0------------
1960-02-28 7.6 10.5 5.0 3.6 79.0- 5.0 2.7---- 0.5------------
1960-02-29 7.3 10.5 5.3 4.4 91.8- 8.0 3.3---- 0.0------------
1960-03-01 3.0 5.7 2.4 2.3 94.0- 8.0 3.3---- 6.1------------
1960-03-02 5.4 12.0 2.1 0.4 85.5- 2.7 0.3---- 0.0------------
1960-03-03 6.2 9.8 2.1 -1.2 84.3- 6.3 0.0---- 0.3------------
1960-03-04 6.0 11.3 2.0 -0.6 82.0- 5.3 3.7---- 0.9------------
1960-03-05 1.2 5.5 -0.1 0.6 76.8- 3.7 3.3---- 0.0------------
1960-03-06 -1.5 1.2 -4.4 -5.3 76.3- 4.0 9.3---- 0.0------------
1960-03-07 -3.2 0.1 -4.9 -5.5 70.5- 6.7 11.7---- 0.0------------
1960-03-08 -3.7 0.7 -8.0 -7.7 74.0- 2.7 13.7---- 0.0------------
1960-03-09 0.0 5.5 -5.5 -6.5 67.8- 1.0 16.0---- 0.0------------
1960-03-10 3.5 8.4 -2.0 -2.7 59.8- 3.3 9.0---- 0.0------------
1960-03-11 5.4 10.8 1.5 -0.3 56.8- 2.7 6.7---- 0.5------------
1960-03-12 5.1 7.9 2.1 -0.5 72.0- 7.0 2.3---- 0.0------------
1960-03-13 4.7 6.7 1.0 -1.7 78.0- 8.0 3.0---- 0.0------------
1960-03-14 6.9 12.1 4.4 3.6 73.8- 2.7 3.3---- 0.0------------
1960-03-15 6.5 19.2 -0.3 -2.9 81.0- 1.0 0.7---- 0.0------------
156.8 ms

 

Źródłem pochodzenia danych jest Instytut Meteorologii i Gospodarki Wodnej – Państwowy Instytut Badawczy. Dane Instytutu Meteorologii i Gospodarki Wodnej – Państwowego Instytutu Badawczego zostały przetworzone.

Dane źródłowe można odnaleźć na stronie https://dane.imgw.pl